createdAt,value
2022-12-31T00:02:20.907Z,14.34
2022-12-31T00:04:49.374Z,14.61
2022-12-31T00:09:58.877Z,14.60
2022-12-31T00:12:27.471Z,14.52
2022-12-31T00:14:56.747Z,14.75
2022-12-31T00:17:26.421Z,14.46
2022-12-31T00:19:54.782Z,14.60
2022-12-31T00:22:23.358Z,14.56
2022-12-31T00:24:55.850Z,14.48
2022-12-31T00:27:24.717Z,14.72
2022-12-31T00:29:53.474Z,14.77
2022-12-31T00:32:21.855Z,14.57
2022-12-31T00:34:51.629Z,14.79
2022-12-31T00:37:19.951Z,14.87
2022-12-31T00:39:48.417Z,14.57
2022-12-31T00:42:16.730Z,14.72
2022-12-31T00:44:45.227Z,14.74
2022-12-31T00:47:13.880Z,14.67
2022-12-31T00:49:42.461Z,15.02
2022-12-31T00:52:14.230Z,14.91
2022-12-31T00:54:42.470Z,15.15
2022-12-31T00:57:11.212Z,15.08
2022-12-31T00:59:39.553Z,15.28
2022-12-31T01:02:07.915Z,15.14
2022-12-31T01:04:36.212Z,15.22
2022-12-31T01:07:04.372Z,15.14
2022-12-31T01:09:34.003Z,14.93
2022-12-31T01:12:02.085Z,14.66
2022-12-31T01:14:32.801Z,15.14
2022-12-31T01:17:01.106Z,14.78
2022-12-31T01:19:31.018Z,14.87
2022-12-31T01:22:02.839Z,14.83
2022-12-31T01:24:31.146Z,14.79
2022-12-31T01:27:00.666Z,14.89
2022-12-31T01:29:29.753Z,15.10
2022-12-31T01:31:57.947Z,14.88
2022-12-31T01:34:26.256Z,14.74
2022-12-31T01:36:54.444Z,14.64
2022-12-31T01:39:22.611Z,14.63
2022-12-31T01:41:50.736Z,14.81
2022-12-31T01:44:56.341Z,15.02
2022-12-31T01:47:36.229Z,14.55
2022-12-31T01:50:11.471Z,14.85
2022-12-31T01:52:42.482Z,14.54
2022-12-31T01:55:17.843Z,14.52
2022-12-31T01:57:49.248Z,14.57
2022-12-31T02:00:19.113Z,14.09
2022-12-31T02:02:47.782Z,14.51
2022-12-31T02:05:21.785Z,14.41
2022-12-31T02:07:51.091Z,14.23
2022-12-31T02:10:19.490Z,14.14
2022-12-31T02:12:48.756Z,14.11
2022-12-31T02:15:18.875Z,14.26
2022-12-31T02:17:55.716Z,14.18
2022-12-31T02:20:43.212Z,14.07
2022-12-31T02:23:34.678Z,14.35
2022-12-31T02:26:36.364Z,14.28
2022-12-31T02:29:28.403Z,14.12
2022-12-31T02:32:00.269Z,13.77
2022-12-31T02:34:33.999Z,13.77
2022-12-31T02:37:04.817Z,14.05
2022-12-31T02:39:34.973Z,13.73
2022-12-31T02:42:04.225Z,13.68
2022-12-31T02:44:33.911Z,13.78
2022-12-31T02:47:19.108Z,13.76
2022-12-31T02:50:02.067Z,13.32
2022-12-31T02:52:39.234Z,13.65
2022-12-31T02:55:16.597Z,13.36
2022-12-31T02:57:51.566Z,13.34
2022-12-31T03:00:37.519Z,13.29
2022-12-31T03:03:09.171Z,13.29
2022-12-31T03:05:41.661Z,13.86
2022-12-31T03:08:09.814Z,13.81
2022-12-31T03:10:38.260Z,13.81
2022-12-31T03:13:05.157Z,13.81
2022-12-31T03:15:45.089Z,13.68
2022-12-31T03:18:18.713Z,13.76
2022-12-31T03:21:08.464Z,13.60
2022-12-31T03:23:51.595Z,13.83
2022-12-31T03:26:21.846Z,13.94
2022-12-31T03:28:50.168Z,13.78
2022-12-31T03:31:23.101Z,13.91
2022-12-31T03:33:57.086Z,14.32
2022-12-31T03:36:29.747Z,14.25
2022-12-31T03:38:59.288Z,14.55
2022-12-31T03:41:27.567Z,14.36
2022-12-31T03:43:56.811Z,14.25
2022-12-31T03:46:24.943Z,14.55
2022-12-31T03:48:54.658Z,14.73
2022-12-31T03:51:24.111Z,14.94
2022-12-31T03:53:52.277Z,14.76
2022-12-31T03:56:20.370Z,14.61
2022-12-31T03:58:48.809Z,14.79
2022-12-31T04:01:17.286Z,14.73
2022-12-31T04:03:45.672Z,14.51
2022-12-31T04:06:15.376Z,14.63
2022-12-31T04:08:43.546Z,14.66
2022-12-31T04:11:14.759Z,14.75
2022-12-31T04:13:47.090Z,14.68
2022-12-31T04:16:15.386Z,14.64
2022-12-31T04:18:43.596Z,14.85
2022-12-31T04:21:11.673Z,14.47
2022-12-31T04:23:41.393Z,14.40
2022-12-31T04:26:09.710Z,14.59
2022-12-31T04:28:37.774Z,14.47
2022-12-31T04:31:06.264Z,14.36
2022-12-31T04:33:34.445Z,14.32
2022-12-31T04:36:02.976Z,14.26
2022-12-31T04:38:37.591Z,14.18
2022-12-31T04:41:19.947Z,14.42
2022-12-31T04:43:52.536Z,14.19
2022-12-31T04:46:23.210Z,14.21
2022-12-31T04:49:00.328Z,13.94
2022-12-31T04:51:39.743Z,13.91
2022-12-31T04:54:08.130Z,13.79
2022-12-31T04:56:37.879Z,13.85
2022-12-31T04:59:07.500Z,14.13
2022-12-31T05:02:06.739Z,13.79
2022-12-31T05:04:35.021Z,14.01
2022-12-31T05:07:09.926Z,14.04
2022-12-31T05:09:38.338Z,13.66
2022-12-31T05:12:08.419Z,14.19
2022-12-31T05:14:40.960Z,13.63
2022-12-31T05:17:26.848Z,13.59
2022-12-31T05:19:58.361Z,13.56
2022-12-31T05:22:44.768Z,13.60
2022-12-31T05:25:13.219Z,13.63
2022-12-31T05:27:46.579Z,13.97
2022-12-31T05:30:15.992Z,13.53
2022-12-31T05:35:48.703Z,14.03
2022-12-31T05:38:17.075Z,14.15
2022-12-31T05:40:45.435Z,14.27
2022-12-31T05:43:14.972Z,14.35
2022-12-31T05:45:43.104Z,14.47
2022-12-31T05:48:11.304Z,14.39
2022-12-31T05:50:39.443Z,14.21
2022-12-31T05:53:07.519Z,14.78
2022-12-31T05:55:35.648Z,14.22
2022-12-31T05:58:03.657Z,14.71
2022-12-31T06:00:38.395Z,14.80
2022-12-31T06:03:06.529Z,14.83
2022-12-31T06:05:34.857Z,14.79
2022-12-31T06:08:02.775Z,14.84
2022-12-31T06:10:30.710Z,14.87
2022-12-31T06:12:58.669Z,14.85
2022-12-31T06:15:26.610Z,14.94
2022-12-31T06:17:55.894Z,15.13
2022-12-31T06:20:23.818Z,14.94
2022-12-31T06:22:51.711Z,15.02
2022-12-31T06:25:20.922Z,15.01
2022-12-31T06:27:49.008Z,15.13
2022-12-31T06:30:17.179Z,14.90
2022-12-31T06:32:46.271Z,14.85
2022-12-31T06:35:15.835Z,14.96
2022-12-31T06:37:43.772Z,14.93
2022-12-31T06:40:15.523Z,15.06
2022-12-31T06:42:44.167Z,15.03
2022-12-31T06:45:14.095Z,15.10
2022-12-31T06:47:42.305Z,15.24
2022-12-31T06:50:10.706Z,15.08
2022-12-31T06:52:40.923Z,14.82
2022-12-31T06:55:12.723Z,14.58
2022-12-31T06:57:42.673Z,14.64
2022-12-31T07:00:12.619Z,14.85
2022-12-31T07:03:03.748Z,15.06
2022-12-31T07:05:46.918Z,14.94
2022-12-31T07:09:36.360Z,14.81
2022-12-31T07:11:48.215Z,14.81
2022-12-31T07:14:30.348Z,14.53
2022-12-31T07:17:08.617Z,14.51
2022-12-31T07:19:51.067Z,14.89
2022-12-31T07:22:22.880Z,14.63
2022-12-31T07:24:53.176Z,14.96
2022-12-31T07:27:38.504Z,14.87
2022-12-31T07:30:12.803Z,14.93
2022-12-31T07:33:01.224Z,15.09
2022-12-31T07:35:39.131Z,15.21
2022-12-31T07:38:15.576Z,15.13
2022-12-31T07:40:59.186Z,14.96
2022-12-31T07:43:34.623Z,15.26
2022-12-31T07:46:14.394Z,15.38
2022-12-31T07:48:42.990Z,15.11
2022-12-31T07:51:12.463Z,15.35
2022-12-31T07:53:40.587Z,15.70
2022-12-31T07:56:11.106Z,15.59
2022-12-31T07:58:55.489Z,15.33
2022-12-31T08:01:34.378Z,15.51
2022-12-31T08:04:08.161Z,15.66
2022-12-31T08:06:45.891Z,15.67
2022-12-31T08:09:27.776Z,15.44
2022-12-31T08:11:59.275Z,16.05
2022-12-31T08:14:29.317Z,15.79
2022-12-31T08:16:58.575Z,16.11
2022-12-31T08:19:30.642Z,15.91
2022-12-31T08:22:14.510Z,15.91
2022-12-31T08:25:09.468Z,16.26
2022-12-31T08:27:45.835Z,16.08
2022-12-31T08:30:16.640Z,16.06
2022-12-31T08:32:51.411Z,16.10
2022-12-31T08:35:32.512Z,16.25
2022-12-31T08:38:08.190Z,16.35
2022-12-31T08:40:45.610Z,16.08
2022-12-31T08:43:31.770Z,16.01
2022-12-31T08:46:01.609Z,16.40
2022-12-31T08:48:40.049Z,16.16
2022-12-31T08:51:14.338Z,16.44
2022-12-31T08:53:42.985Z,16.38
2022-12-31T08:56:21.454Z,16.50
2022-12-31T08:58:56.391Z,16.44
2022-12-31T09:01:30.672Z,16.58
2022-12-31T09:04:08.047Z,16.84
2022-12-31T09:06:42.718Z,16.63
2022-12-31T09:09:18.323Z,16.89
2022-12-31T09:11:54.710Z,16.69
2022-12-31T09:14:42.103Z,16.71
2022-12-31T09:17:31.396Z,16.69
2022-12-31T09:20:00.210Z,16.73
2022-12-31T09:22:28.993Z,16.77
2022-12-31T09:24:57.523Z,17.10
2022-12-31T09:27:32.000Z,16.93
2022-12-31T09:30:05.927Z,16.81
2022-12-31T09:32:43.921Z,17.11
2022-12-31T09:35:22.268Z,16.90
2022-12-31T09:37:53.116Z,17.18
2022-12-31T09:40:46.584Z,17.16
2022-12-31T09:44:01.002Z,17.40
2022-12-31T09:47:33.373Z,17.53
2022-12-31T09:50:36.463Z,17.40
2022-12-31T09:53:36.710Z,17.48
2022-12-31T09:56:11.448Z,17.52
2022-12-31T09:58:46.330Z,17.45
2022-12-31T10:01:27.894Z,17.44
2022-12-31T10:04:25.153Z,17.33
2022-12-31T10:07:05.700Z,17.60
2022-12-31T10:10:06.531Z,17.59
2022-12-31T10:13:09.934Z,17.64
2022-12-31T10:15:55.442Z,17.63
2022-12-31T10:18:39.601Z,17.60
2022-12-31T10:21:27.015Z,17.63
2022-12-31T10:24:18.489Z,17.58
2022-12-31T10:27:07.348Z,17.57
2022-12-31T10:29:46.815Z,17.59
2022-12-31T10:32:26.288Z,17.61
2022-12-31T10:35:10.668Z,17.68
2022-12-31T10:37:48.426Z,17.78
2022-12-31T10:40:27.932Z,17.65
2022-12-31T10:43:50.811Z,17.71
2022-12-31T10:46:57.520Z,17.89
2022-12-31T10:50:02.411Z,17.74
2022-12-31T10:53:14.210Z,17.87
2022-12-31T10:56:22.662Z,17.89
2022-12-31T11:06:46.109Z,17.77
2022-12-31T11:09:51.635Z,17.95
2022-12-31T11:12:40.280Z,17.94
2022-12-31T11:15:38.572Z,18.04
2022-12-31T11:18:18.863Z,17.99
2022-12-31T11:21:12.893Z,18.01
2022-12-31T11:23:49.718Z,18.31
2022-12-31T11:26:33.078Z,18.15
2022-12-31T11:29:15.559Z,18.24
2022-12-31T11:32:05.637Z,18.19
2022-12-31T11:35:09.954Z,18.16
2022-12-31T11:37:46.428Z,18.03
2022-12-31T11:40:43.230Z,18.01
2022-12-31T11:43:37.873Z,17.90
2022-12-31T11:46:41.524Z,17.81
2022-12-31T11:49:42.410Z,17.75
2022-12-31T11:52:36.705Z,17.80
2022-12-31T11:55:28.510Z,17.75
2022-12-31T11:58:03.841Z,17.31
2022-12-31T12:00:34.080Z,17.59
2022-12-31T12:03:06.154Z,17.24
2022-12-31T12:05:36.258Z,17.20
2022-12-31T12:08:05.243Z,17.31
2022-12-31T12:10:38.125Z,16.92
2022-12-31T12:13:15.776Z,16.72
2022-12-31T12:16:02.103Z,16.41
2022-12-31T12:18:36.197Z,16.83
2022-12-31T12:21:09.944Z,16.47
2022-12-31T12:23:38.746Z,16.75
2022-12-31T12:26:28.566Z,16.54
2022-12-31T12:28:56.692Z,16.39
2022-12-31T12:31:27.033Z,16.54
2022-12-31T12:33:55.145Z,16.44
2022-12-31T12:36:23.461Z,16.41
2022-12-31T12:39:02.892Z,16.70
2022-12-31T12:41:32.752Z,16.64
2022-12-31T12:44:06.477Z,16.71
2022-12-31T12:46:37.599Z,16.73
2022-12-31T12:49:06.573Z,16.58
2022-12-31T12:51:59.315Z,16.61
2022-12-31T12:54:39.888Z,16.47
2022-12-31T12:57:19.798Z,16.56
2022-12-31T13:00:04.406Z,16.48
2022-12-31T13:02:55.762Z,16.52
2022-12-31T13:05:36.673Z,16.23
2022-12-31T13:08:15.432Z,16.55
2022-12-31T13:10:59.349Z,16.42
2022-12-31T13:13:32.873Z,16.43
2022-12-31T13:16:09.025Z,16.07
2022-12-31T13:18:49.976Z,16.31
2022-12-31T13:21:32.416Z,16.26
2022-12-31T13:24:07.891Z,16.27
2022-12-31T13:26:45.059Z,16.40
2022-12-31T13:29:19.130Z,16.08
2022-12-31T13:31:49.086Z,16.25
2022-12-31T13:34:23.593Z,16.07
2022-12-31T13:36:54.248Z,16.36
2022-12-31T14:30:00.775Z,15.80
2022-12-31T14:32:59.995Z,15.77
2022-12-31T14:35:54.404Z,15.57
2022-12-31T14:38:34.936Z,15.30
2022-12-31T14:41:18.478Z,15.39
2022-12-31T14:43:56.004Z,15.08
2022-12-31T14:46:31.199Z,15.19
2022-12-31T14:49:16.329Z,15.12
2022-12-31T14:51:44.919Z,15.08
2022-12-31T14:54:30.651Z,15.05
2022-12-31T14:56:58.654Z,15.03
2022-12-31T14:59:32.192Z,14.80
2022-12-31T15:02:02.582Z,14.91
2022-12-31T15:04:35.695Z,14.85
2022-12-31T15:07:17.852Z,14.67
2022-12-31T15:09:58.891Z,14.24
2022-12-31T15:13:03.944Z,14.61
2022-12-31T15:15:56.270Z,14.04
2022-12-31T15:18:38.676Z,14.17
2022-12-31T15:49:24.987Z,13.27
2022-12-31T15:52:04.524Z,13.55
2022-12-31T15:54:43.753Z,13.40
2022-12-31T15:57:19.361Z,13.34
2022-12-31T15:59:50.895Z,13.19
2022-12-31T16:02:27.840Z,12.95
2022-12-31T16:04:57.700Z,13.33
2022-12-31T16:07:34.503Z,13.17
2022-12-31T16:10:07.634Z,12.66
2022-12-31T16:12:44.572Z,12.73
2022-12-31T16:15:32.812Z,12.80
2022-12-31T16:18:17.133Z,12.46
2022-12-31T16:20:54.884Z,12.50
2022-12-31T16:23:26.517Z,12.41
2022-12-31T16:26:01.694Z,12.63
2022-12-31T16:28:36.717Z,12.33
2022-12-31T16:31:17.279Z,12.32
2022-12-31T16:33:48.726Z,12.43
2022-12-31T16:36:22.631Z,12.07
2022-12-31T16:38:53.394Z,11.81
2022-12-31T16:41:24.820Z,12.03
2022-12-31T16:44:32.329Z,12.06
2022-12-31T16:47:04.021Z,11.96
2022-12-31T16:50:06.289Z,11.66
2022-12-31T16:52:39.811Z,12.08
2022-12-31T16:55:12.010Z,12.03
2022-12-31T16:57:58.705Z,11.56
2022-12-31T17:00:28.853Z,11.77
2022-12-31T17:03:10.011Z,12.40
2022-12-31T17:05:57.613Z,12.09
2022-12-31T17:08:30.766Z,12.06
2022-12-31T17:11:04.604Z,12.29
2022-12-31T17:13:37.204Z,12.29
2022-12-31T17:16:10.437Z,12.24
2022-12-31T17:18:39.907Z,12.46
2022-12-31T17:21:24.928Z,12.65
2022-12-31T17:23:56.656Z,12.50
2022-12-31T17:26:29.456Z,12.55
2022-12-31T17:29:02.235Z,12.53
2022-12-31T17:31:35.274Z,12.43
2022-12-31T17:34:24.488Z,12.10
2022-12-31T17:37:18.716Z,12.00
2022-12-31T17:39:48.449Z,12.35
2022-12-31T17:42:25.765Z,12.04
2022-12-31T17:44:58.138Z,11.82
2022-12-31T17:47:38.163Z,12.16
2022-12-31T17:50:21.302Z,12.22
2022-12-31T17:52:50.896Z,11.89
2022-12-31T17:55:19.971Z,11.97
2022-12-31T17:57:52.980Z,12.30
2022-12-31T18:00:23.451Z,11.90
2022-12-31T18:02:51.772Z,12.05
2022-12-31T18:05:22.155Z,12.20
2022-12-31T18:07:52.115Z,12.04
2022-12-31T18:10:23.460Z,11.93
2022-12-31T18:12:52.090Z,11.86
2022-12-31T18:15:22.749Z,11.60
2022-12-31T18:17:51.327Z,11.47
2022-12-31T18:20:20.019Z,11.65
2022-12-31T18:22:48.445Z,11.54
2022-12-31T18:25:20.752Z,11.59
2022-12-31T18:27:49.510Z,11.57
2022-12-31T18:30:18.132Z,11.59
2022-12-31T18:32:47.431Z,11.19
2022-12-31T18:35:48.619Z,11.11
2022-12-31T18:38:12.313Z,11.29
2022-12-31T18:40:44.640Z,11.44
2022-12-31T18:43:58.320Z,11.53
2022-12-31T18:46:27.152Z,11.41
2022-12-31T18:48:55.382Z,11.39
2022-12-31T18:51:31.709Z,10.91
2022-12-31T18:54:00.712Z,11.03
2022-12-31T18:56:31.437Z,10.85
2022-12-31T18:59:00.310Z,11.23
2022-12-31T19:01:31.464Z,10.64
2022-12-31T19:04:05.262Z,10.58
2022-12-31T19:06:34.235Z,10.81
2022-12-31T19:12:07.989Z,10.90
2022-12-31T19:14:37.130Z,10.53
2022-12-31T19:19:34.920Z,10.67
2022-12-31T19:22:05.647Z,10.54
2022-12-31T19:24:35.215Z,10.59
2022-12-31T19:27:03.738Z,10.87
2022-12-31T19:29:35.428Z,11.16
2022-12-31T19:32:08.173Z,11.08
2022-12-31T19:34:36.261Z,10.53
2022-12-31T19:37:05.065Z,10.56
2022-12-31T19:42:04.271Z,10.80
2022-12-31T19:44:33.649Z,11.00
2022-12-31T19:47:01.638Z,11.28
2022-12-31T19:49:29.597Z,11.19
2022-12-31T19:51:57.602Z,11.20
2022-12-31T19:54:25.588Z,10.94
2022-12-31T19:56:53.670Z,11.16
2022-12-31T19:59:21.688Z,11.60
2022-12-31T20:01:51.122Z,11.42
2022-12-31T20:04:19.377Z,11.81
2022-12-31T20:06:47.429Z,11.60
2022-12-31T20:09:15.512Z,11.72
2022-12-31T20:11:43.489Z,11.87
2022-12-31T20:14:12.024Z,11.99
2022-12-31T20:16:40.087Z,12.13
2022-12-31T20:19:10.906Z,12.42
2022-12-31T20:21:38.923Z,12.21
2022-12-31T20:24:07.332Z,11.82
2022-12-31T20:26:35.445Z,11.84
2022-12-31T20:29:03.409Z,11.94
2022-12-31T20:31:31.461Z,11.90
2022-12-31T20:33:59.428Z,12.04
2022-12-31T20:36:28.796Z,11.95
2022-12-31T20:38:56.709Z,11.88
2022-12-31T20:41:25.052Z,11.95
2022-12-31T20:43:53.189Z,11.87
2022-12-31T20:46:24.903Z,11.93
2022-12-31T20:48:54.816Z,11.96
2022-12-31T20:51:24.198Z,11.91
2022-12-31T20:53:56.055Z,11.74
2022-12-31T20:56:25.337Z,12.07
2022-12-31T20:58:53.343Z,12.08
2022-12-31T21:01:24.238Z,12.24
2022-12-31T21:04:04.774Z,12.17
2022-12-31T21:06:35.919Z,12.41
2022-12-31T21:09:12.119Z,12.34
2022-12-31T21:11:58.230Z,12.47
2022-12-31T21:14:26.371Z,13.22
2022-12-31T21:16:54.570Z,13.18
2022-12-31T21:19:23.457Z,13.06
2022-12-31T21:21:52.111Z,12.98
2022-12-31T21:24:24.481Z,13.16
2022-12-31T21:26:52.927Z,13.19
2022-12-31T21:30:18.791Z,12.63
2022-12-31T21:32:52.392Z,12.57
2022-12-31T21:39:16.379Z,12.57
2022-12-31T21:41:53.490Z,12.48
2022-12-31T21:44:22.628Z,13.01
2022-12-31T21:47:16.339Z,12.84
2022-12-31T21:49:39.089Z,13.25
2022-12-31T21:52:20.943Z,13.09
2022-12-31T21:55:06.422Z,13.12
2022-12-31T21:57:59.105Z,13.00
2022-12-31T22:00:43.063Z,13.36
2022-12-31T22:03:26.967Z,13.44
2022-12-31T22:06:00.515Z,13.29
2022-12-31T22:08:30.258Z,13.54
2022-12-31T22:10:58.715Z,13.43
2022-12-31T22:13:28.667Z,13.15
2022-12-31T22:16:05.850Z,13.30
2022-12-31T22:18:35.955Z,13.46
2022-12-31T22:21:10.799Z,13.06
2022-12-31T22:23:44.506Z,13.39
2022-12-31T22:26:15.277Z,12.81
2022-12-31T22:28:45.974Z,13.32
2022-12-31T22:31:16.996Z,13.28
2022-12-31T22:33:47.291Z,13.18
2022-12-31T22:36:39.487Z,13.13
2022-12-31T22:39:09.058Z,12.99
2022-12-31T22:41:42.484Z,13.07
2022-12-31T22:44:13.169Z,13.36
2022-12-31T22:46:42.065Z,13.27
2022-12-31T22:49:14.492Z,13.27
2022-12-31T22:51:57.136Z,13.17
2022-12-31T22:54:26.983Z,13.28
2022-12-31T22:56:54.990Z,13.02
2022-12-31T22:59:31.467Z,13.37
2022-12-31T23:01:59.593Z,13.11
2022-12-31T23:05:16.140Z,13.46
2022-12-31T23:07:44.551Z,13.23
2022-12-31T23:10:29.768Z,13.21
2022-12-31T23:12:57.738Z,13.27
2022-12-31T23:15:44.440Z,13.31
2022-12-31T23:18:29.592Z,13.14
2022-12-31T23:21:14.874Z,13.26
2022-12-31T23:23:42.832Z,13.25
2022-12-31T23:26:10.777Z,12.98
2022-12-31T23:28:38.775Z,13.37
2022-12-31T23:31:08.872Z,13.48
2022-12-31T23:33:36.884Z,13.38
2022-12-31T23:36:05.922Z,13.65
2022-12-31T23:38:33.923Z,13.34
2022-12-31T23:41:01.887Z,13.73
2022-12-31T23:43:29.809Z,13.50
2022-12-31T23:45:57.776Z,13.54
2022-12-31T23:48:28.449Z,13.45
2022-12-31T23:50:57.726Z,13.63
2022-12-31T23:53:27.287Z,13.70
2022-12-31T23:55:55.867Z,13.54
2022-12-31T23:58:27.990Z,13.52
